Fort Worth Alliance Airport Fort Worth US
ICAO: KAFW
IATA: AFW
Category: Large
Scheduled Services: No

Elevation: 722 ft
TransAlt. 18000 ft.

Airport Communications:
RGNL APP/DEP:118.1
ASOS:126.925
ATIS:126.925
CLNC DEL:128.725
GND:132.65
ALLIANCE TWR:120.825

KAFW Zoom In..

Runways:

(A) RW 16L length 9600 ft width 150 ft
ILS 110.15 / hdg 163

(B) RW 16R length 8220 ft width 150 ft
---- / hdg 163

(C) RW 34L length 8220 ft width 150 ft
---- / hdg 343

(D) RW 34R length 9600 ft width 150 ft
ILS 110.15 / hdg 343

Location; KAFW
Day. 17 / Time. 06.53 Zulu
* Altimeter: 29.98
* Temperature: 30° c. 86°f.
* Wind from: 180° Speed 08 kn.
Dewpoint: 16° c.
Visibility: 9 Statute Miles.
Clouds: Few 3000 ft.

KAFW 170653Z 18008KT 9SM FEW300 30/16 A2998 RMK AO2 SLP131 T03000161


Wind From 180°
Speed 08 kn.

 
 
jpsmedia.com for Web Design worldairports.se 2018   terms of use